Weather at Kotamubagu/Mopait Airport

Public forecast

Using degrees Celsius for public forecast. Weather courtesy of forecast.io.

Closest aviation weather report (METAR) to Kotamubagu/Mopait Airport

Closest report is Sam Ratulangi Airport, 65.0 nm (120.4 km) NE. Retrieved 2021/07/31 05:30 UTC (3 minutes ago):

WAMM 310530Z 21014KT 190V260 6000 TS -RA FEW019CB SCT020 24/22 Q1010 TEMPO TL0700 TSRA

Closest aviation forecast (TAF) to Kotamubagu/Mopait Airport

Forecast is more than 6 hours old.

Closest forecast is Sam Ratulangi Airport, 65.0 nm (120.4 km) NE. Retrieved 2021/07/30 18:33 UTC (11 hours ago):

TAF WAMM 301700Z 3018/3124 VRB03KT 9999 FEW020 BECMG 3101/3103 19008KT TEMPO 3105/3108 33006KT 4000 RA BKN019 BECMG 3110/3112 VRB03KT